Time;durP1;ratioP1;P1;durP2;ratioP2;P2;SDS_P1;SDS_P2;PMS_P1;PMS_P2;Temp;Humidity;BMP_temperature;BMP_pressure;BME280_temperature;BME280_humidity;BME280_pressure;Samples;Min_cycle;Max_cycle;Signal;HPM_P1;HPM_P2
2023/01/02 00:01:27;;;;;;;;;;;;;;;17.81;70.59;100993.89;2266112;78;50270;-74
2023/01/02 00:04:28;;;;;;;;;;;;;;;17.83;70.42;100981.18;2264378;78;50294;-75
2023/01/02 00:07:30;;;;;;;;;;;;;;;17.81;70.53;100971.14;2264248;78;50214;-76
2023/01/02 00:10:31;;;;;;;;;;;;;;;17.81;70.49;100964.45;2262893;78;50357;-75
2023/01/02 00:13:33;;;;;;;;;;;;;;;17.82;70.44;100968.27;2212102;79;51626;-76
2023/01/02 00:16:34;;;;;;;;;;;;;;;17.79;70.50;100960.59;2261524;78;51460;-76
2023/01/02 00:19:36;;;;;;;;;;;;;;;17.81;70.45;100953.23;2250775;79;51493;-75
2023/01/02 00:22:38;;;;;;;;;;;;;;;17.80;70.50;100940.86;2250900;79;51584;-74
2023/01/02 00:25:39;;;;;;;;;;;;;;;17.82;70.29;100943.35;2250837;79;50302;-75
2023/01/02 00:28:41;;;;;;;;;;;;;;;17.81;70.37;100930.48;2261270;78;51608;-75
2023/01/02 00:31:42;;;;;;;;;;;;;;;17.80;70.49;100940.00;2250775;79;51597;-74
2023/01/02 00:34:44;;;;;;;;;;;;;;;17.79;70.55;100944.53;2261623;78;50328;-75
2023/01/02 00:37:45;;;;;;;;;;;;;;;17.79;70.44;100935.64;2236348;79;51222;-74
2023/01/02 00:40:47;;;;;;;;;;;;;;;17.78;70.55;100938.83;2247946;78;50662;-75
2023/01/02 00:43:49;;;;;;;;;;;;;;;17.79;70.50;100935.16;2232547;78;50037;-75
2023/01/02 00:46:50;;;;;;;;;;;;;;;17.79;70.49;100932.96;2231944;79;51407;-75
2023/01/02 00:49:52;;;;;;;;;;;;;;;17.80;70.43;100926.62;2209441;79;51442;-75
2023/01/02 00:52:53;;;;;;;;;;;;;;;17.79;70.31;100916.42;2209399;79;51406;-75
2023/01/02 00:55:55;;;;;;;;;;;;;;;17.79;70.35;100922.25;2232016;79;50296;-76
2023/01/02 00:58:56;;;;;;;;;;;;;;;17.78;70.39;100918.75;2209274;79;50077;-74
2023/01/02 01:01:58;;;;;;;;;;;;;;;17.79;70.38;100915.56;2186024;79;51299;-75
2023/01/02 01:05:00;;;;;;;;;;;;;;;17.80;70.25;100927.95;2209434;78;50071;-76
2023/01/02 01:08:01;;;;;;;;;;;;;;;17.80;70.25;100927.48;2232099;78;50257;-75
2023/01/02 01:11:07;;;;;;;;;;;;;;;17.80;70.23;100922.61;2219020;78;52126;-75
2023/01/02 01:14:08;;;;;;;;;;;;;;;17.81;70.19;100917.60;2266810;78;52413;-75
2023/01/02 01:17:10;;;;;;;;;;;;;;;17.75;70.50;100918.23;2264249;78;51438;-75
2023/01/02 01:20:11;;;;;;;;;;;;;;;17.79;70.31;100916.90;2266001;78;50332;-75
2023/01/02 01:23:13;;;;;;;;;;;;;;;17.78;70.43;100917.92;2264411;78;50225;-75
2023/01/02 01:26:15;;;;;;;;;;;;;;;17.77;70.40;100908.20;2224854;79;51656;-75
2023/01/02 01:29:16;;;;;;;;;;;;;;;17.76;70.41;100896.66;2232018;78;51560;-75
2023/01/02 01:32:18;;;;;;;;;;;;;;;17.75;70.51;100898.16;2233859;78;51417;-75
2023/01/02 01:35:19;;;;;;;;;;;;;;;17.75;70.39;100891.47;2233448;79;51434;-74
2023/01/02 01:38:21;;;;;;;;;;;;;;;17.76;70.44;100885.13;2209293;79;52425;-74
2023/01/02 01:41:24;;;;;;;;;;;;;;;17.77;70.40;100884.11;2239916;78;51454;-75
2023/01/02 01:44:44;;;;;;;;;;;;;;;17.76;70.46;100879.78;2267534;77;51631;-75
2023/01/02 01:47:53;;;;;;;;;;;;;;;17.73;70.49;100874.77;2268953;78;50322;-75
2023/01/02 01:50:54;;;;;;;;;;;;;;;17.73;70.51;100874.77;2245638;78;52387;-75
2023/01/02 01:53:58;;;;;;;;;;;;;;;17.74;70.66;100880.45;2269144;77;51532;-74
2023/01/02 01:57:01;;;;;;;;;;;;;;;17.78;70.82;100872.42;2268625;77;50583;-75
2023/01/02 02:00:02;;;;;;;;;;;;;;;17.79;70.75;100858.02;2268856;77;52151;-75
2023/01/02 02:03:05;;;;;;;;;;;;;;;17.78;70.92;100845.66;2245571;78;51107;-75
2023/01/02 02:06:07;;;;;;;;;;;;;;;17.76;71.09;100848.48;2268842;78;52104;-75
2023/01/02 02:09:27;;;;;;;;;;;;;;;17.77;71.08;100847.98;2268876;77;51418;-75
2023/01/02 02:12:29;;;;;;;;;;;;;;;17.78;71.10;100843.80;2262841;77;49998;-74
2023/01/02 02:15:32;;;;;;;;;;;;;;;17.77;71.21;100841.29;2252064;78;51545;-74
2023/01/02 02:18:52;;;;;;;;;;;;;;;17.77;71.19;100842.12;2250512;78;51531;-74
2023/01/02 02:22:12;;;;;;;;;;;;;;;17.78;70.88;100836.28;2250713;78;50692;-75
2023/01/02 02:25:15;;;;;;;;;;;;;;;17.75;71.35;100827.23;2250629;79;51428;-76
2023/01/02 02:28:24;;;;;;;;;;;;;;;17.76;71.10;100814.20;2250441;79;51551;-74
2023/01/02 02:31:30;;;;;;;;;;;;;;;17.78;70.77;100809.52;2236358;79;51264;-75
2023/01/02 02:34:36;;;;;;;;;;;;;;;17.80;70.90;100803.50;2215688;78;51454;-75
2023/01/02 02:37:39;;;;;;;;;;;;;;;17.79;71.08;100781.73;2250580;78;50789;-75
2023/01/02 02:40:52;;;;;;;;;;;;;;;17.76;71.13;100778.91;2232389;78;51323;-76
2023/01/02 02:44:10;;;;;;;;;;;;;;;17.76;71.24;100776.23;2256642;77;50479;-75
2023/01/02 02:47:16;;;;;;;;;;;;;;;17.77;70.84;100783.75;2264164;78;51489;-75
2023/01/02 02:50:29;;;;;;;;;;;;;;;17.77;71.24;100782.41;2264211;78;52263;-76
2023/01/02 02:53:43;;;;;;;;;;;;;;;17.76;71.33;100787.45;2240889;78;49663;-75
2023/01/02 02:56:45;;;;;;;;;;;;;;;17.76;71.31;100790.95;2264007;78;50322;-74
2023/01/02 02:59:46;;;;;;;;;;;;;;;17.76;71.37;100784.26;2264234;78;50278;-75
2023/01/02 03:02:48;;;;;;;;;;;;;;;17.75;71.45;100779.06;2264193;78;50634;-74
2023/01/02 03:06:06;;;;;;;;;;;;;;;17.76;71.23;100780.24;2265887;78;52510;-75
2023/01/02 03:09:19;;;;;;;;;;;;;;;17.77;70.96;100771.70;2264163;78;51496;-75
2023/01/02 03:12:31;;;;;;;;;;;;;;;17.77;71.23;100775.72;2236710;77;51470;-75
2023/01/02 03:15:37;;;;;;;;;;;;;;;17.75;71.12;100764.34;2268633;77;51485;-75
2023/01/02 03:18:40;;;;;;;;;;;;;;;17.76;71.38;100760.68;2245183;78;51069;-75
2023/01/02 03:21:43;;;;;;;;;;;;;;;17.74;71.44;100754.16;2268972;77;50677;-75
2023/01/02 03:24:45;;;;;;;;;;;;;;;17.75;71.27;100753.64;2269064;78;50871;-75
2023/01/02 03:27:47;;;;;;;;;;;;;;;17.74;71.54;100751.98;2245329;78;51566;-74
2023/01/02 03:30:48;;;;;;;;;;;;;;;17.75;71.47;100757.66;2245470;78;51235;-75
2023/01/02 03:33:51;;;;;;;;;;;;;;;17.74;71.56;100754.16;2269123;77;50247;-75
2023/01/02 03:36:53;;;;;;;;;;;;;;;17.74;71.48;100753.33;2268907;77;52310;-75
2023/01/02 03:39:57;;;;;;;;;;;;;;;17.75;71.47;100750.97;2269146;78;50334;-75
2023/01/02 03:43:03;;;;;;;;;;;;;;;17.74;71.54;100744.78;2228567;78;51783;-74
2023/01/02 03:46:19;;;;;;;;;;;;;;;17.75;71.41;100747.81;2268948;78;51469;-75
2023/01/02 03:49:22;;;;;;;;;;;;;;;17.74;71.57;100739.44;2269020;77;50659;-74
2023/01/02 03:52:24;;;;;;;;;;;;;;;17.74;71.61;100739.95;2269127;78;50302;-75
2023/01/02 03:55:25;;;;;;;;;;;;;;;17.76;71.58;100745.96;2270617;77;51169;-75
2023/01/02 03:58:41;;;;;;;;;;;;;;;17.74;71.59;100734.59;2268760;77;50674;-74
2023/01/02 04:01:44;;;;;;;;;;;;;;;17.74;71.67;100731.91;2268955;77;51499;-74
2023/01/02 04:04:56;;;;;;;;;;;;;;;17.74;71.55;100735.42;2269116;78;51362;-74
2023/01/02 04:08:02;;;;;;;;;;;;;;;17.74;71.33;100728.73;2245269;77;51252;-73
2023/01/02 04:11:04;;;;;;;;;;;;;;;17.72;71.73;100729.91;2268567;78;50293;-74
2023/01/02 04:14:07;;;;;;;;;;;;;;;17.74;71.48;100723.89;2262376;77;50261;-75
2023/01/02 04:17:12;;;;;;;;;;;;;;;17.73;71.65;100724.91;2269034;77;50308;-74
2023/01/02 04:20:23;;;;;;;;;;;;;;;17.72;71.57;100721.88;2270004;77;22455;-75
2023/01/02 04:23:26;;;;;;;;;;;;;;;17.72;71.69;100722.71;2268991;78;50320;-73
2023/01/02 04:26:31;;;;;;;;;;;;;;;17.72;71.71;100719.20;2268824;78;50538;-75
2023/01/02 04:29:33;;;;;;;;;;;;;;;17.73;71.46;100728.41;2245742;78;50181;-75
2023/01/02 04:32:36;;;;;;;;;;;;;;;17.73;71.67;100724.40;2245942;77;51659;-76
2023/01/02 04:35:38;;;;;;;;;;;;;;;17.72;71.62;100728.06;2269431;78;51526;-76
2023/01/02 04:38:40;;;;;;;;;;;;;;;17.72;71.71;100720.55;2269274;77;51569;-75
2023/01/02 04:41:42;;;;;;;;;;;;;;;17.73;71.70;100714.20;2267943;78;50322;-75
2023/01/02 04:44:44;;;;;;;;;;;;;;;17.73;71.67;100711.53;2266533;78;50633;-76
2023/01/02 04:47:46;;;;;;;;;;;;;;;17.73;71.69;100718.22;2266301;78;50543;-76
2023/01/02 04:50:48;;;;;;;;;;;;;;;17.72;71.72;100703.15;2264831;78;51579;-76
2023/01/02 04:53:50;;;;;;;;;;;;;;;17.73;71.40;100702.16;2265043;78;51395;-76
2023/01/02 04:56:51;;;;;;;;;;;;;;;17.72;71.70;100707.16;2241742;78;51178;-76
2023/01/02 04:59:53;;;;;;;;;;;;;;;17.71;71.70;100702.83;2266180;78;51432;-75
2023/01/02 05:02:55;;;;;;;;;;;;;;;17.72;71.64;100697.80;2264341;78;51473;-76
2023/01/02 05:06:00;;;;;;;;;;;;;;;17.73;71.58;100711.53;2264236;78;51486;-76
2023/01/02 05:09:01;;;;;;;;;;;;;;;17.73;71.76;100700.82;2241207;78;51160;-76
2023/01/02 05:12:03;;;;;;;;;;;;;;;17.72;71.59;100696.46;2258934;78;50257;-76
2023/01/02 05:15:05;;;;;;;;;;;;;;;17.71;71.70;100705.00;2256579;78;50712;-78
2023/01/02 05:18:06;;;;;;;;;;;;;;;17.71;71.62;100714.36;2232991;78;50278;-78
2023/01/02 05:24:29;;;;;;;;;;;;;;;17.73;71.62;100708.84;2232423;78;22359;-76
2023/01/02 05:27:30;;;;;;;;;;;;;;;17.72;71.31;100717.87;2231960;79;50243;-76
2023/01/02 05:30:32;;;;;;;;;;;;;;;17.70;71.26;100712.71;2256570;77;50265;-76
2023/01/02 05:33:33;;;;;;;;;;;;;;;17.72;71.18;100714.69;2230256;78;51146;-75
2023/01/02 05:36:35;;;;;;;;;;;;;;;17.71;71.22;100710.86;2231862;79;50287;-76
2023/01/02 05:39:36;;;;;;;;;;;;;;;17.71;71.19;100708.19;2256477;77;50307;-77
2023/01/02 05:42:38;;;;;;;;;;;;;;;17.70;71.17;100703.83;2267455;76;50792;-75
2023/01/02 05:45:40;;;;;;;;;;;;;;;17.69;71.19;100702.17;2243164;78;52490;-76
2023/01/02 05:48:41;;;;;;;;;;;;;;;17.71;71.27;100697.48;2266546;76;51489;-75
2023/01/02 05:51:43;;;;;;;;;;;;;;;17.69;71.19;100694.97;2266722;77;51536;-75
2023/01/02 05:54:44;;;;;;;;;;;;;;;17.75;71.11;100689.41;2266689;78;51427;-76
2023/01/02 05:57:46;;;;;;;;;;;;;;;17.76;71.04;100693.27;2241323;77;49610;-76
2023/01/02 06:00:47;;;;;;;;;;;;;;;17.74;72.04;100695.78;2266565;78;50310;-75
2023/01/02 06:03:50;;;;;;;;;;;;;;;17.76;71.42;100688.42;2266571;77;50274;-75
2023/01/02 06:06:51;;;;;;;;;;;;;;;17.76;71.41;100688.42;2266235;77;50437;-74
2023/01/02 06:09:53;;;;;;;;;;;;;;;17.77;71.15;100692.75;2266826;78;50458;-77
2023/01/02 06:12:54;;;;;;;;;;;;;;;17.79;71.00;100688.06;2267441;78;50334;-79
2023/01/02 06:15:56;;;;;;;;;;;;;;;17.80;70.93;100689.75;2269386;78;50632;-78
2023/01/02 06:18:58;;;;;;;;;;;;;;;17.80;70.81;100689.75;2270688;78;50125;-77
2023/01/02 06:22:00;;;;;;;;;;;;;;;17.79;70.78;100682.70;2245665;78;51165;-78
2023/01/02 06:25:01;;;;;;;;;;;;;;;17.79;70.85;100688.06;2271318;77;50623;-78
2023/01/02 06:28:03;;;;;;;;;;;;;;;17.78;70.84;100691.25;2270671;78;50644;-78
2023/01/02 06:31:06;;;;;;;;;;;;;;;17.79;70.79;100694.75;2270975;77;50203;-77
2023/01/02 06:34:09;;;;;;;;;;;;;;;17.77;70.85;100692.75;2245530;78;51711;-78
2023/01/02 06:37:10;;;;;;;;;;;;;;;17.77;70.98;100692.23;2268979;77;51584;-78
2023/01/02 06:40:12;;;;;;;;;;;;;;;17.78;71.00;100693.09;2270977;77;52260;-78
2023/01/02 06:43:13;;;;;;;;;;;;;;;17.78;70.96;100689.91;2259572;78;51451;-78
2023/01/02 06:46:15;;;;;;;;;;;;;;;17.78;71.02;100706.48;2236482;79;51180;-78
2023/01/02 06:49:17;;;;;;;;;;;;;;;17.79;71.06;100698.77;2261771;78;51425;-77
2023/01/02 06:52:19;;;;;;;;;;;;;;;17.80;71.08;100699.11;2261787;78;52214;-77
2023/01/02 06:55:20;;;;;;;;;;;;;;;17.77;71.85;100695.43;2251143;79;51437;-78
2023/01/02 06:58:22;;;;;;;;;;;;;;;17.77;71.75;100696.25;2236707;79;51124;-77
2023/01/02 07:01:24;;;;;;;;;;;;;;;17.74;71.85;100703.30;2232854;78;50843;-78
2023/01/02 07:04:25;;;;;;;;;;;;;;;17.75;71.65;100702.80;2232463;79;50383;-78
2023/01/02 07:07:27;;;;;;;;;;;;;;;17.74;71.92;100702.48;2232158;79;50217;-77
2023/01/02 07:10:28;;;;;;;;;;;;;;;17.73;71.75;100700.31;2246878;77;51142;-78
2023/01/02 07:13:30;;;;;;;;;;;;;;;17.73;71.68;100703.50;2271550;77;50491;-78
2023/01/02 07:16:31;;;;;;;;;;;;;;;17.74;71.81;100709.17;2265901;77;51414;-77
2023/01/02 07:19:33;;;;;;;;;;;;;;;17.73;71.82;100712.35;2267125;77;51315;-78
2023/01/02 07:22:35;;;;;;;;;;;;;;;17.75;71.62;100717.52;2251847;78;51416;-77
2023/01/02 07:25:36;;;;;;;;;;;;;;;17.75;71.42;100729.55;2262571;78;51438;-78
2023/01/02 07:28:38;;;;;;;;;;;;;;;17.74;71.94;100733.25;2267793;78;50656;-78
2023/01/02 07:31:39;;;;;;;;;;;;;;;17.76;71.70;100729.91;2269478;78;52372;-79
2023/01/02 07:34:41;;;;;;;;;;;;;;;17.78;71.72;100711.32;2241724;78;52561;-78
2023/01/02 07:37:42;;;;;;;;;;;;;;;17.78;71.81;100720.69;2269292;78;50779;-78
2023/01/02 07:40:44;;;;;;;;;;;;;;;17.79;72.49;100723.72;2269641;77;50242;-78
2023/01/02 07:43:46;;;;;;;;;;;;;;;17.80;72.35;100723.20;2267672;78;50715;-78
2023/01/02 07:46:47;;;;;;;;;;;;;;;17.84;72.57;100726.70;2219318;78;50073;-76
2023/01/02 07:49:49;;;;;;;;;;;;;;;17.86;72.55;100735.08;2267943;77;51660;-77
2023/01/02 07:52:50;;;;;;;;;;;;;;;17.88;73.01;100733.03;2258646;77;51426;-76
2023/01/02 07:55:59;;;;;;;;;;;;;;;17.87;72.98;100736.22;2273177;77;51419;-76
2023/01/02 07:59:01;;;;;;;;;;;;;;;17.89;72.84;100745.42;2245831;78;52558;-77
2023/01/02 08:02:02;;;;;;;;;;;;;;;17.85;72.88;100748.94;2269431;78;50350;-76
2023/01/02 08:05:04;;;;;;;;;;;;;;;17.89;72.89;100746.77;2270283;78;50633;-76
2023/01/02 08:08:06;;;;;;;;;;;;;;;17.91;72.94;100748.77;2259926;78;50445;-77
2023/01/02 08:11:09;;;;;;;;;;;;;;;17.92;72.97;100752.58;2239273;77;50176;-77
2023/01/02 08:14:11;;;;;;;;;;;;;;;17.93;72.93;100750.26;2269335;77;50482;-78
2023/01/02 08:17:12;;;;;;;;;;;;;;;17.93;72.83;100750.26;2272130;76;50354;-77
2023/01/02 08:20:14;;;;;;;;;;;;;;;17.93;72.86;100758.29;2238020;78;50694;-76
2023/01/02 08:23:15;;;;;;;;;;;;;;;17.95;72.80;100750.89;2187903;79;51651;-77
2023/01/02 08:26:17;;;;;;;;;;;;;;;17.94;72.84;100751.91;2232744;79;50639;-75
2023/01/02 08:29:19;;;;;;;;;;;;;;;17.93;72.88;100743.56;2210082;79;51377;-75
2023/01/02 08:32:20;;;;;;;;;;;;;;;17.96;72.79;100747.73;2210053;79;51400;-76
2023/01/02 08:35:22;;;;;;;;;;;;;;;17.97;72.75;100752.89;2209891;79;52372;-76
2023/01/02 08:38:23;;;;;;;;;;;;;;;17.97;72.66;100749.39;2209562;79;50168;-76
2023/01/02 08:41:35;;;;;;;;;;;;;;;17.98;72.63;100758.59;2221403;77;50729;-77
2023/01/02 08:44:44;;;;;;;;;;;;;;;17.99;72.61;100753.55;2242013;77;50867;-79
2023/01/02 08:48:10;;;;;;;;;;;;;;;17.98;72.53;100750.56;2231184;78;52003;-79
2023/01/02 08:51:11;;;;;;;;;;;;;;;17.99;72.49;100743.36;2255665;77;22395;-76
2023/01/02 08:54:13;;;;;;;;;;;;;;;18.00;72.31;100753.87;2231727;78;51474;-77
2023/01/02 08:57:14;;;;;;;;;;;;;;;18.01;72.26;100752.05;2230606;80;50381;-76
2023/01/02 09:00:16;;;;;;;;;;;;;;;18.00;72.16;100763.24;2185061;80;51129;-76
2023/01/02 09:03:18;;;;;;;;;;;;;;;17.99;72.06;100753.55;2209119;79;51572;-77
2023/01/02 09:06:20;;;;;;;;;;;;;;;17.98;71.79;100757.25;2230810;80;50251;-77
2023/01/02 09:09:21;;;;;;;;;;;;;;;17.98;71.73;100758.59;2208385;79;51476;-76
2023/01/02 09:12:23;;;;;;;;;;;;;;;17.98;71.56;100759.94;2215484;79;51566;-76
2023/01/02 09:15:24;;;;;;;;;;;;;;;17.98;71.36;100763.95;2261309;78;50229;-77
2023/01/02 09:18:26;;;;;;;;;;;;;;;17.98;71.35;100776.47;2268732;77;49985;-75
2023/01/02 09:21:30;;;;;;;;;;;;;;;18.01;71.79;100780.16;2269651;78;50759;-76
2023/01/02 09:24:33;;;;;;;;;;;;;;;17.99;71.84;100780.33;2242527;78;22334;-77
2023/01/02 09:27:35;;;;;;;;;;;;;;;17.99;72.00;100776.31;2269600;77;51438;-76
2023/01/02 09:30:37;;;;;;;;;;;;;;;17.98;71.78;100774.66;2269744;78;51464;-76
2023/01/02 09:33:39;;;;;;;;;;;;;;;18.00;71.58;100774.46;2269664;77;50277;-76
2023/01/02 09:36:40;;;;;;;;;;;;;;;18.00;72.27;100782.49;2245213;77;51523;-76
2023/01/02 09:39:42;;;;;;;;;;;;;;;18.01;72.16;100780.16;2245355;78;51446;-76
2023/01/02 09:42:43;;;;;;;;;;;;;;;18.03;72.23;100762.91;2266731;78;50214;-77
2023/01/02 09:45:45;;;;;;;;;;;;;;;18.03;72.30;100765.59;2232954;78;50159;-74
2023/01/02 09:48:47;;;;;;;;;;;;;;;18.04;72.29;100764.57;2233772;79;51122;-75
2023/01/02 09:51:48;;;;;;;;;;;;;;;18.07;72.32;100764.72;2232660;79;50782;-76
2023/01/02 09:54:50;;;;;;;;;;;;;;;18.08;72.28;100761.53;2232767;79;51647;-78
2023/01/02 09:57:59;;;;;;;;;;;;;;;18.08;72.25;100758.85;2232450;79;50771;-76
2023/01/02 10:01:01;;;;;;;;;;;;;;;18.09;72.16;100751.17;2210097;79;50235;-76
2023/01/02 10:04:07;;;;;;;;;;;;;;;18.10;72.17;100739.44;2232586;79;52358;-76
2023/01/02 10:07:10;;;;;;;;;;;;;;;18.10;72.12;100738.92;2232353;79;50679;-76
2023/01/02 10:10:20;;;;;;;;;;;;;;;18.10;72.13;100746.95;2232461;78;50576;-74
2023/01/02 10:13:23;;;;;;;;;;;;;;;18.12;72.09;100741.44;2228267;78;51697;-75
2023/01/02 10:16:26;;;;;;;;;;;;;;;18.12;72.09;100726.20;2264603;78;50455;-75
2023/01/02 10:19:41;;;;;;;;;;;;;;;18.13;72.03;100724.34;2264747;78;51601;-74
2023/01/02 10:22:44;;;;;;;;;;;;;;;18.13;72.05;100721.66;2264711;78;50393;-76
2023/01/02 10:25:47;;;;;;;;;;;;;;;18.14;72.01;100727.38;2264090;78;50455;-76
2023/01/02 10:29:07;;;;;;;;;;;;;;;18.14;71.97;100716.14;2241252;78;50055;-76
2023/01/02 10:32:16;;;;;;;;;;;;;;;18.15;71.94;100699.05;2264924;78;51534;-76
2023/01/02 10:35:34;;;;;;;;;;;;;;;18.14;71.97;100711.30;2265106;78;51405;-75
2023/01/02 10:38:36;;;;;;;;;;;;;;;18.15;71.88;100704.92;2264870;78;50666;-77
2023/01/02 10:41:38;;;;;;;;;;;;;;;18.15;71.93;100695.55;2265886;78;51236;-76
2023/01/02 10:44:39;;;;;;;;;;;;;;;18.14;71.88;100698.73;2266949;78;50414;-76
2023/01/02 10:47:41;;;;;;;;;;;;;;;18.15;71.94;100704.92;2264797;78;50227;-76
2023/01/02 10:50:50;;;;;;;;;;;;;;;18.16;71.88;100702.56;2266423;78;50255;-75
2023/01/02 10:54:00;;;;;;;;;;;;;;;18.17;71.88;100708.27;2240445;78;52512;-76
2023/01/02 10:57:01;;;;;;;;;;;;;;;18.18;71.73;100712.59;2264282;78;51468;-76
2023/01/02 11:00:04;;;;;;;;;;;;;;;18.17;71.83;100708.27;2264831;78;50736;-76
2023/01/02 11:03:07;;;;;;;;;;;;;;;18.16;71.80;100700.73;2265401;78;49990;-76
2023/01/02 11:06:20;;;;;;;;;;;;;;;18.16;71.76;100696.72;2264676;78;50784;-76
2023/01/02 11:09:25;;;;;;;;;;;;;;;18.18;71.73;100701.37;2264579;77;51513;-76
2023/01/02 11:12:27;;;;;;;;;;;;;;;18.18;71.67;100696.02;2266594;78;50817;-76
2023/01/02 11:15:30;;;;;;;;;;;;;;;18.19;71.65;100708.41;2262113;78;50259;-76
2023/01/02 11:18:32;;;;;;;;;;;;;;;18.19;71.59;100706.24;2237011;79;52310;-76
2023/01/02 11:21:38;;;;;;;;;;;;;;;18.19;71.53;100696.36;2251156;79;50771;-76
2023/01/02 11:24:56;;;;;;;;;;;;;;;18.19;71.30;100702.23;2251134;78;50278;-77
2023/01/02 11:28:00;;;;;;;;;;;;;;;18.19;71.05;100690.17;2242948;78;51536;-76
2023/01/02 11:31:03;;;;;;;;;;;;;;;18.20;71.13;100694.50;2232563;79;51292;-76
2023/01/02 11:34:09;;;;;;;;;;;;;;;18.17;70.94;100691.68;2232475;78;51374;-77
2023/01/02 11:37:15;;;;;;;;;;;;;;;18.17;70.84;100689.00;2232387;79;50323;-76
2023/01/02 11:40:26;;;;;;;;;;;;;;;18.17;70.73;100685.50;2233049;78;50684;-78
2023/01/02 11:43:47;;;;;;;;;;;;;;;18.16;70.70;100701.22;2245699;78;51266;-77
2023/01/02 11:46:49;;;;;;;;;;;;;;;18.16;70.64;100703.90;2267036;77;50652;-76
2023/01/02 11:49:50;;;;;;;;;;;;;;;18.15;70.58;100706.27;2209605;79;52501;-76
2023/01/02 11:52:54;;;;;;;;;;;;;;;18.14;70.53;100700.59;2247029;78;50721;-76
2023/01/02 11:56:06;;;;;;;;;;;;;;;18.14;70.55;100700.08;2244726;78;51194;-77
2023/01/02 11:59:15;;;;;;;;;;;;;;;18.14;70.49;100703.27;2267804;78;51480;-77
2023/01/02 12:02:20;;;;;;;;;;;;;;;18.13;70.45;100701.58;2267934;78;50299;-77
2023/01/02 12:05:23;;;;;;;;;;;;;;;18.10;70.55;100708.64;2267840;78;49947;-77
2023/01/02 12:08:36;;;;;;;;;;;;;;;18.10;70.54;100708.64;2267448;78;50787;-76
2023/01/02 12:11:45;;;;;;;;;;;;;;;18.09;70.46;100707.81;2267163;77;50652;-76
2023/01/02 12:15:06;;;;;;;;;;;;;;;18.09;70.51;100706.98;2263252;78;50717;-76
2023/01/02 12:18:12;;;;;;;;;;;;;;;18.09;70.45;100700.29;2269203;77;50696;-76
2023/01/02 12:21:16;;;;;;;;;;;;;;;18.08;70.40;100701.28;2246082;78;52381;-76
2023/01/02 12:24:22;;;;;;;;;;;;;;;18.06;70.40;100698.80;2269629;78;51696;-77
2023/01/02 12:27:29;;;;;;;;;;;;;;;18.04;70.36;100698.14;2269467;78;50553;-77
2023/01/02 12:30:32;;;;;;;;;;;;;;;18.02;70.40;100704.17;2269618;78;50428;-77
2023/01/02 12:33:35;;;;;;;;;;;;;;;18.03;70.42;100701.81;2246208;78;52517;-77
2023/01/02 12:36:38;;;;;;;;;;;;;;;18.00;70.39;100704.34;2269491;78;51620;-77
2023/01/02 12:39:41;;;;;;;;;;;;;;;18.00;70.39;100716.90;2269650;78;51474;-77
2023/01/02 12:42:44;;;;;;;;;;;;;;;17.98;70.42;100710.41;2267961;77;51587;-78
2023/01/02 12:45:48;;;;;;;;;;;;;;;17.99;70.36;100714.73;2207830;80;52576;-75
2023/01/02 12:48:57;;;;;;;;;;;;;;;17.99;70.35;100715.25;2230395;79;51633;-76
2023/01/02 12:52:18;;;;;;;;;;;;;;;17.98;70.29;100714.42;2230808;78;50272;-77
2023/01/02 12:55:36;;;;;;;;;;;;;;;17.97;70.30;100725.29;2160284;81;50297;-76
2023/01/02 12:58:52;;;;;;;;;;;;;;;17.97;70.29;100724.78;2159841;82;51578;-76
2023/01/02 13:02:03;;;;;;;;;;;;;;;17.94;70.28;100729.16;2159375;82;52036;-76
2023/01/02 13:05:07;;;;;;;;;;;;;;;17.94;70.34;100714.94;2159334;81;50374;-76
2023/01/02 13:08:15;;;;;;;;;;;;;;;17.92;70.29;100723.14;2159996;82;50695;-77
2023/01/02 13:11:19;;;;;;;;;;;;;;;17.92;70.29;100721.80;2166551;78;51742;-77
2023/01/02 13:14:22;;;;;;;;;;;;;;;17.92;70.30;100721.80;2220652;79;50453;-77
2023/01/02 13:17:31;;;;;;;;;;;;;;;17.92;70.27;100725.81;2234222;79;51489;-76
2023/01/02 13:20:34;;;;;;;;;;;;;;;17.89;70.25;100718.14;2234372;79;50665;-77
2023/01/02 13:23:39;;;;;;;;;;;;;;;17.86;70.41;100714.48;2209988;79;51282;-77
2023/01/02 13:26:41;;;;;;;;;;;;;;;17.85;70.36;100726.19;2233049;79;52442;-77
2023/01/02 13:29:44;;;;;;;;;;;;;;;17.86;70.37;100721.69;2232625;79;51494;-77
2023/01/02 13:32:45;;;;;;;;;;;;;;;17.86;70.29;100725.19;2232817;79;50767;-77
2023/01/02 13:35:47;;;;;;;;;;;;;;;17.86;70.34;100727.05;2259090;77;50133;-77
2023/01/02 13:38:50;;;;;;;;;;;;;;;17.83;70.36;100723.70;2232671;79;50652;-77
2023/01/02 13:45:31;;;;;;;;;;;;;;;17.86;70.24;100729.20;2265960;78;22525;-77
2023/01/02 13:48:34;;;;;;;;;;;;;;;17.83;70.31;100741.10;2264647;78;50468;-77
2023/01/02 13:51:36;;;;;;;;;;;;;;;17.83;70.25;100753.66;2264836;78;50293;-77
2023/01/02 13:54:38;;;;;;;;;;;;;;;17.82;70.27;100755.47;2264754;78;50421;-77
2023/01/02 13:57:39;;;;;;;;;;;;;;;17.83;70.22;100753.66;2264740;78;50262;-77
2023/01/02 14:00:41;;;;;;;;;;;;;;;17.83;70.16;100754.48;2266402;78;51644;-77
2023/01/02 14:03:43;;;;;;;;;;;;;;;17.82;70.16;100744.77;2264929;78;50446;-77
2023/01/02 14:06:49;;;;;;;;;;;;;;;17.81;70.24;100752.99;2266521;78;50744;-77
2023/01/02 14:10:06;;;;;;;;;;;;;;;17.78;70.28;100747.45;2264311;78;22337;-77
2023/01/02 14:13:08;;;;;;;;;;;;;;;17.80;70.22;100751.30;2263369;77;51791;-76
2023/01/02 14:16:12;;;;;;;;;;;;;;;17.81;70.20;100754.33;2265017;78;50332;-77
2023/01/02 14:19:15;;;;;;;;;;;;;;;17.79;70.21;100756.31;2265254;78;50420;-76
2023/01/02 14:22:17;;;;;;;;;;;;;;;17.79;70.19;100752.30;2265079;78;51516;-76
2023/01/02 14:25:19;;;;;;;;;;;;;;;17.79;70.13;100761.66;2266548;78;52774;-76
2023/01/02 14:28:24;;;;;;;;;;;;;;;17.79;70.18;100764.34;2264777;78;50474;-77
2023/01/02 14:31:32;;;;;;;;;;;;;;;17.79;70.11;100769.69;2264921;78;50606;-76
2023/01/02 14:34:34;;;;;;;;;;;;;;;17.78;70.15;100769.37;2264984;78;51616;-76
2023/01/02 14:37:42;;;;;;;;;;;;;;;17.78;70.12;100784.09;2266676;78;51489;-76
2023/01/02 14:40:44;;;;;;;;;;;;;;;17.77;70.14;100786.42;2259418;78;50305;-76
2023/01/02 14:43:46;;;;;;;;;;;;;;;17.78;70.07;100792.95;2251572;78;51437;-76
2023/01/02 14:46:48;;;;;;;;;;;;;;;17.78;70.01;100795.63;2269610;78;51579;-76
2023/01/02 14:49:51;;;;;;;;;;;;;;;17.77;70.07;100803.82;2246219;78;51663;-76
2023/01/02 14:52:57;;;;;;;;;;;;;;;17.75;70.10;100795.98;2269484;78;51559;-77
2023/01/02 14:56:00;;;;;;;;;;;;;;;17.76;70.07;100798.15;2269491;78;50703;-77
2023/01/02 14:59:02;;;;;;;;;;;;;;;17.77;70.03;100798.47;2269492;77;50707;-76
2023/01/02 15:02:15;;;;;;;;;;;;;;;17.76;70.02;100786.11;2269685;78;50433;-77
2023/01/02 15:05:18;;;;;;;;;;;;;;;17.75;70.06;100792.45;2269606;78;51551;-77
2023/01/02 15:08:20;;;;;;;;;;;;;;;17.76;69.98;100795.47;2269476;78;50864;-77
2023/01/02 15:14:42;;;;;;;;;;;;;;;17.75;69.98;100799.14;2254017;78;22362;-77
2023/01/02 15:17:45;;;;;;;;;;;;;;;17.72;70.04;100805.67;2232691;78;50700;-77
2023/01/02 15:20:50;;;;;;;;;;;;;;;17.73;70.06;100805.20;2232836;78;50269;-77
2023/01/02 15:23:51;;;;;;;;;;;;;;;17.72;70.03;100820.91;2232852;79;51476;-76
2023/01/02 15:26:53;;;;;;;;;;;;;;;17.73;70.02;100831.95;2208540;79;52524;-76
2023/01/02 15:29:55;;;;;;;;;;;;;;;17.73;70.03;100840.81;2256994;77;50716;-76
2023/01/02 15:32:57;;;;;;;;;;;;;;;17.73;69.99;100850.69;2232486;79;50475;-76
2023/01/02 15:36:00;;;;;;;;;;;;;;;17.73;70.03;100861.39;2257032;78;51448;-76
2023/01/02 15:39:10;;;;;;;;;;;;;;;17.74;69.89;100871.08;2257284;78;52498;-76
2023/01/02 15:45:08;;;;;;;;;;;;;;;17.74;69.91;100866.55;2258156;78;51455;-76
2023/01/02 15:45:16;;;;;;;;;;;;;;;17.77;69.90;100876.08;2263264;78;22478;-75
2023/01/02 15:48:19;;;;;;;;;;;;;;;17.73;69.92;100886.31;2266389;77;50281;-75
2023/01/02 15:51:22;;;;;;;;;;;;;;;17.72;70.03;100910.05;2243342;78;51205;-74
2023/01/02 15:54:23;;;;;;;;;;;;;;;17.75;70.15;100910.20;2267293;77;51550;-76